createdAt,value
2023-05-25T00:01:49.146Z,15.46
2023-05-25T00:04:17.126Z,15.38
2023-05-25T00:06:45.536Z,15.47
2023-05-25T00:09:13.123Z,15.42
2023-05-25T00:11:40.490Z,15.55
2023-05-25T00:14:08.578Z,15.52
2023-05-25T00:16:37.615Z,15.58
2023-05-25T00:19:05.710Z,15.50
2023-05-25T00:21:38.265Z,15.38
2023-05-25T00:24:06.518Z,15.21
2023-05-25T00:26:35.021Z,15.08
2023-05-25T00:29:03.562Z,15.12
2023-05-25T00:31:33.122Z,15.08
2023-05-25T00:34:00.625Z,14.94
2023-05-25T00:36:27.922Z,15.21
2023-05-25T00:38:55.363Z,15.33
2023-05-25T00:41:23.033Z,15.37
2023-05-25T00:43:50.418Z,15.09
2023-05-25T00:46:17.756Z,15.17
2023-05-25T00:48:46.323Z,15.00
2023-05-25T00:51:14.552Z,15.02
2023-05-25T00:53:42.504Z,14.67
2023-05-25T00:56:23.147Z,14.64
2023-05-25T00:58:54.648Z,14.84
2023-05-25T01:01:22.851Z,14.84
2023-05-25T01:03:54.558Z,14.79
2023-05-25T01:06:23.289Z,14.71
2023-05-25T01:08:54.136Z,14.90
2023-05-25T01:11:26.685Z,14.99
2023-05-25T01:13:54.564Z,14.99
2023-05-25T01:16:22.510Z,14.66
2023-05-25T01:18:52.616Z,14.75
2023-05-25T01:21:20.494Z,14.48
2023-05-25T01:23:58.851Z,14.33
2023-05-25T01:26:27.584Z,14.56
2023-05-25T01:28:56.111Z,14.58
2023-05-25T01:31:24.067Z,14.10
2023-05-25T01:33:52.145Z,14.21
2023-05-25T01:36:20.104Z,14.18
2023-05-25T01:38:47.525Z,14.24
2023-05-25T01:41:15.160Z,14.14
2023-05-25T01:43:42.857Z,14.06
2023-05-25T01:46:37.187Z,13.89
2023-05-25T01:49:19.926Z,14.00
2023-05-25T01:52:08.443Z,14.04
2023-05-25T01:54:51.735Z,14.03
2023-05-25T01:57:20.952Z,13.97
2023-05-25T01:59:48.598Z,13.92
2023-05-25T02:02:18.237Z,13.73
2023-05-25T02:04:46.200Z,13.74
2023-05-25T02:07:13.674Z,13.78
2023-05-25T02:09:41.029Z,13.82
2023-05-25T02:12:08.500Z,13.61
2023-05-25T02:14:35.850Z,13.65
2023-05-25T02:17:03.892Z,13.63
2023-05-25T02:19:31.337Z,13.62
2023-05-25T02:21:58.735Z,13.73
2023-05-25T02:24:26.550Z,13.60
2023-05-25T02:26:54.139Z,13.41
2023-05-25T02:29:21.482Z,13.38
2023-05-25T02:31:48.826Z,13.26
2023-05-25T02:34:16.616Z,13.27
2023-05-25T02:36:44.992Z,13.28
2023-05-25T02:39:12.385Z,13.28
2023-05-25T02:41:39.797Z,13.42
2023-05-25T02:44:08.015Z,13.70
2023-05-25T02:46:35.729Z,13.69
2023-05-25T02:49:03.361Z,13.80
2023-05-25T02:51:30.873Z,14.07
2023-05-25T02:54:00.013Z,13.88
2023-05-25T02:56:27.635Z,13.77
2023-05-25T02:58:57.121Z,13.50
2023-05-25T03:01:31.134Z,13.03
2023-05-25T03:03:58.957Z,13.02
2023-05-25T03:06:27.441Z,13.33
2023-05-25T03:08:58.225Z,13.42
2023-05-25T03:11:25.549Z,13.06
2023-05-25T03:13:53.158Z,13.23
2023-05-25T03:16:23.404Z,13.29
2023-05-25T03:18:51.018Z,13.23
2023-05-25T03:21:18.652Z,13.24
2023-05-25T03:23:46.316Z,13.06
2023-05-25T03:26:13.726Z,12.99
2023-05-25T03:28:42.053Z,12.88
2023-05-25T03:31:09.434Z,12.92
2023-05-25T03:33:36.668Z,12.89
2023-05-25T03:36:11.013Z,13.02
2023-05-25T03:38:38.450Z,12.89
2023-05-25T03:41:05.888Z,13.00
2023-05-25T03:43:33.366Z,13.09
2023-05-25T03:46:00.831Z,12.78
2023-05-25T03:48:28.293Z,12.90
2023-05-25T03:50:55.628Z,12.89
2023-05-25T03:53:23.168Z,12.84
2023-05-25T03:55:52.355Z,12.55
2023-05-25T03:58:20.023Z,12.75
2023-05-25T04:00:49.777Z,12.76
2023-05-25T04:03:17.360Z,12.70
2023-05-25T04:05:45.932Z,12.44
2023-05-25T04:08:18.092Z,12.50
2023-05-25T04:10:46.208Z,12.46
2023-05-25T04:13:13.583Z,12.25
2023-05-25T04:15:40.915Z,12.51
2023-05-25T04:18:20.801Z,12.36
2023-05-25T04:20:49.428Z,12.43
2023-05-25T04:23:19.630Z,12.59
2023-05-25T04:25:47.407Z,12.53
2023-05-25T04:28:15.459Z,12.50
2023-05-25T04:30:58.939Z,12.43
2023-05-25T04:33:39.690Z,12.47
2023-05-25T04:36:20.059Z,12.67
2023-05-25T04:38:48.064Z,12.77
2023-05-25T04:41:15.662Z,12.69
2023-05-25T04:44:04.582Z,12.73
2023-05-25T04:46:37.191Z,12.85
2023-05-25T04:49:05.764Z,12.63
2023-05-25T04:51:33.503Z,12.59
2023-05-25T04:54:00.990Z,12.56
2023-05-25T04:56:28.656Z,12.87
2023-05-25T04:58:55.912Z,12.82
2023-05-25T05:01:24.240Z,12.81
2023-05-25T05:03:53.457Z,12.63
2023-05-25T05:06:21.722Z,12.48
2023-05-25T05:08:49.268Z,12.48
2023-05-25T05:11:16.632Z,12.46
2023-05-25T05:13:44.963Z,12.47
2023-05-25T05:16:12.421Z,12.30
2023-05-25T05:18:40.329Z,12.32
2023-05-25T05:21:07.711Z,12.41
2023-05-25T05:23:36.460Z,12.72
2023-05-25T05:26:05.101Z,12.70
2023-05-25T05:28:36.083Z,12.93
2023-05-25T05:31:04.363Z,13.19
2023-05-25T05:33:31.862Z,12.86
2023-05-25T05:36:02.624Z,12.62
2023-05-25T05:38:30.516Z,12.65
2023-05-25T05:40:58.561Z,12.67
2023-05-25T05:43:26.117Z,12.73
2023-05-25T05:45:53.760Z,12.72
2023-05-25T05:48:21.222Z,12.95
2023-05-25T05:50:48.609Z,12.77
2023-05-25T05:53:16.215Z,12.89
2023-05-25T05:55:44.205Z,12.94
2023-05-25T05:58:11.736Z,12.32
2023-05-25T06:00:39.323Z,12.54
2023-05-25T06:03:08.119Z,12.45
2023-05-25T06:05:35.568Z,12.67
2023-05-25T06:08:05.136Z,12.49
2023-05-25T06:10:35.191Z,12.62
2023-05-25T06:13:03.135Z,12.59
2023-05-25T06:15:30.531Z,12.77
2023-05-25T06:18:00.297Z,12.96
2023-05-25T06:20:27.931Z,12.74
2023-05-25T06:22:55.461Z,12.85
2023-05-25T06:25:22.817Z,12.94
2023-05-25T06:27:50.985Z,13.03
2023-05-25T06:30:18.383Z,13.06
2023-05-25T06:32:45.997Z,13.21
2023-05-25T06:35:19.667Z,13.48
2023-05-25T06:37:49.540Z,13.44
2023-05-25T06:40:19.445Z,13.68
2023-05-25T06:42:46.765Z,13.69
2023-05-25T06:45:33.066Z,13.59
2023-05-25T06:48:00.945Z,13.68
2023-05-25T06:50:28.400Z,13.65
2023-05-25T06:52:56.162Z,13.80
2023-05-25T06:55:24.040Z,13.82
2023-05-25T06:57:51.281Z,14.01
2023-05-25T07:00:19.794Z,14.05
2023-05-25T07:02:47.105Z,14.13
2023-05-25T07:05:14.673Z,14.33
2023-05-25T07:07:42.196Z,14.46
2023-05-25T07:10:09.752Z,14.31
2023-05-25T07:12:37.128Z,14.30
2023-05-25T07:15:05.549Z,14.37
2023-05-25T07:17:32.837Z,14.30
2023-05-25T07:20:00.284Z,14.62
2023-05-25T07:22:27.660Z,14.79
2023-05-25T07:24:55.069Z,15.16
2023-05-25T07:27:22.447Z,15.15
2023-05-25T07:29:49.725Z,15.68
2023-05-25T07:32:17.056Z,15.77
2023-05-25T07:34:44.533Z,15.90
2023-05-25T07:37:11.899Z,15.90
2023-05-25T07:39:40.541Z,15.95
2023-05-25T07:42:07.931Z,16.00
2023-05-25T07:44:35.674Z,16.49
2023-05-25T07:47:03.335Z,16.65
2023-05-25T07:49:30.843Z,16.37
2023-05-25T07:51:58.169Z,16.25
2023-05-25T07:54:25.725Z,16.51
2023-05-25T07:56:54.050Z,16.31
2023-05-25T07:59:21.303Z,16.35
2023-05-25T08:01:48.821Z,16.62
2023-05-25T08:04:16.298Z,16.59
2023-05-25T08:06:44.320Z,16.08
2023-05-25T08:09:13.274Z,16.01
2023-05-25T08:11:40.610Z,16.16
2023-05-25T08:14:07.893Z,16.20
2023-05-25T08:16:35.215Z,16.33
2023-05-25T08:19:02.856Z,15.96
2023-05-25T08:21:31.003Z,15.98
2023-05-25T08:23:59.230Z,15.79
2023-05-25T08:26:41.388Z,15.97
2023-05-25T08:29:13.978Z,16.14
2023-05-25T08:31:47.417Z,16.36
2023-05-25T08:34:14.694Z,16.33
2023-05-25T08:36:42.086Z,16.26
2023-05-25T08:39:10.351Z,16.16
2023-05-25T08:41:43.332Z,16.06
2023-05-25T08:44:11.526Z,16.06
2023-05-25T08:46:39.079Z,16.25
2023-05-25T08:49:13.485Z,16.27
2023-05-25T08:51:54.602Z,16.37
2023-05-25T08:54:29.808Z,16.63
2023-05-25T08:57:05.274Z,16.81
2023-05-25T08:59:47.770Z,16.44
2023-05-25T09:02:24.017Z,16.40
2023-05-25T09:04:51.434Z,16.42
2023-05-25T09:07:19.179Z,16.32
2023-05-25T09:09:47.979Z,16.34
2023-05-25T09:12:16.244Z,16.23
2023-05-25T09:14:48.290Z,16.33
2023-05-25T09:17:16.878Z,16.30
2023-05-25T09:19:44.692Z,16.44
2023-05-25T09:22:16.382Z,16.73
2023-05-25T09:24:45.295Z,17.01
2023-05-25T09:27:17.602Z,17.07
2023-05-25T09:29:51.441Z,16.91
2023-05-25T09:32:19.457Z,16.98
2023-05-25T09:34:47.437Z,17.06
2023-05-25T09:37:16.772Z,16.82
2023-05-25T09:39:45.078Z,17.01
2023-05-25T09:42:12.595Z,17.21
2023-05-25T09:44:40.585Z,17.22
2023-05-25T09:47:08.160Z,17.19
2023-05-25T09:49:35.836Z,17.02
2023-05-25T09:52:03.109Z,17.31
2023-05-25T09:54:30.443Z,17.22
2023-05-25T09:56:57.885Z,17.23
2023-05-25T09:59:25.615Z,17.14
2023-05-25T10:01:56.475Z,17.27
2023-05-25T10:04:23.874Z,17.32
2023-05-25T10:06:51.820Z,17.69
2023-05-25T10:09:20.444Z,17.17
2023-05-25T10:11:48.427Z,17.34
2023-05-25T10:14:21.774Z,17.23
2023-05-25T10:16:52.025Z,17.39
2023-05-25T10:19:21.940Z,17.54
2023-05-25T10:22:01.035Z,17.25
2023-05-25T10:24:35.422Z,17.18
2023-05-25T10:27:14.593Z,17.41
2023-05-25T10:29:49.652Z,17.42
2023-05-25T10:32:17.695Z,17.42
2023-05-25T10:34:46.111Z,17.53
2023-05-25T10:37:14.581Z,17.46
2023-05-25T10:39:43.918Z,17.40
2023-05-25T10:42:13.141Z,17.45
2023-05-25T10:44:42.277Z,17.50
2023-05-25T10:47:09.836Z,17.63
2023-05-25T10:49:53.625Z,17.64
2023-05-25T10:52:21.091Z,17.60
2023-05-25T10:54:48.942Z,17.76
2023-05-25T10:57:21.736Z,17.74
2023-05-25T10:59:50.901Z,18.01
2023-05-25T11:02:23.475Z,18.19
2023-05-25T11:04:51.190Z,18.06
2023-05-25T11:07:19.412Z,18.03
2023-05-25T11:09:58.455Z,18.30
2023-05-25T11:12:26.894Z,18.35
2023-05-25T11:15:16.538Z,18.07
2023-05-25T11:17:47.937Z,18.21
2023-05-25T11:20:22.989Z,18.52
2023-05-25T11:22:52.565Z,18.47
2023-05-25T11:25:36.775Z,18.24
2023-05-25T11:28:05.791Z,18.20
2023-05-25T11:30:33.608Z,18.14
2023-05-25T11:33:04.546Z,18.31
2023-05-25T11:35:37.195Z,18.57
2023-05-25T11:38:07.912Z,18.42
2023-05-25T11:40:47.789Z,18.25
2023-05-25T11:43:15.888Z,18.42
2023-05-25T11:45:44.586Z,18.50
2023-05-25T11:48:16.206Z,18.58
2023-05-25T11:50:43.920Z,18.60
2023-05-25T11:53:11.401Z,18.79
2023-05-25T11:55:41.073Z,18.64
2023-05-25T11:58:08.508Z,18.66
2023-05-25T12:00:35.805Z,18.75
2023-05-25T12:03:03.298Z,18.74
2023-05-25T12:05:38.339Z,18.94
2023-05-25T12:08:05.649Z,18.86
2023-05-25T12:10:32.946Z,18.82
2023-05-25T12:13:02.155Z,19.09
2023-05-25T12:15:30.412Z,19.33
2023-05-25T12:17:57.781Z,19.36
2023-05-25T12:20:25.927Z,19.36
2023-05-25T12:22:53.587Z,19.34
2023-05-25T12:25:22.014Z,19.20
2023-05-25T12:27:49.818Z,19.15
2023-05-25T12:30:17.335Z,19.19
2023-05-25T12:33:03.740Z,19.42
2023-05-25T12:35:50.289Z,19.67
2023-05-25T12:38:21.560Z,19.47
2023-05-25T12:41:04.776Z,19.50
2023-05-25T12:43:43.132Z,19.42
2023-05-25T12:46:10.690Z,19.56
2023-05-25T12:48:38.110Z,19.46
2023-05-25T12:51:05.758Z,19.52
2023-05-25T12:53:47.164Z,19.40
2023-05-25T12:56:14.521Z,19.44
2023-05-25T12:58:41.759Z,19.54
2023-05-25T13:01:09.427Z,19.20
2023-05-25T13:03:36.817Z,19.49
2023-05-25T13:06:04.790Z,19.71
2023-05-25T13:08:32.103Z,19.76
2023-05-25T13:11:00.124Z,19.80
2023-05-25T13:13:27.538Z,19.99
2023-05-25T13:15:54.857Z,19.79
2023-05-25T13:18:22.425Z,19.69
2023-05-25T13:20:51.248Z,19.97
2023-05-25T13:23:20.887Z,19.76
2023-05-25T13:25:48.112Z,19.69
2023-05-25T13:28:15.481Z,19.72
2023-05-25T13:30:43.083Z,19.92
2023-05-25T13:33:10.966Z,19.97
2023-05-25T13:35:45.637Z,19.98
2023-05-25T13:38:14.473Z,20.23
2023-05-25T13:40:43.299Z,20.51
2023-05-25T13:43:10.955Z,20.49
2023-05-25T13:45:38.434Z,20.15
2023-05-25T13:48:05.974Z,20.27
2023-05-25T13:50:33.482Z,20.10
2023-05-25T13:53:00.886Z,20.32
2023-05-25T13:55:28.370Z,20.44
2023-05-25T13:57:56.039Z,20.20
2023-05-25T14:00:23.497Z,20.23
2023-05-25T14:02:50.955Z,20.40
2023-05-25T14:05:19.924Z,20.46
2023-05-25T14:07:47.507Z,20.36
2023-05-25T14:10:15.035Z,20.13
2023-05-25T14:12:42.425Z,20.27
2023-05-25T14:15:10.325Z,20.30
2023-05-25T14:17:37.883Z,20.58
2023-05-25T14:20:06.410Z,20.70
2023-05-25T14:22:34.108Z,20.80
2023-05-25T14:25:01.424Z,20.83
2023-05-25T14:27:29.044Z,20.72
2023-05-25T14:29:56.365Z,20.70
2023-05-25T14:32:23.888Z,20.78
2023-05-25T14:34:51.372Z,20.74
2023-05-25T14:37:18.824Z,20.67
2023-05-25T14:39:46.079Z,20.56
2023-05-25T14:42:13.540Z,20.91
2023-05-25T14:44:40.745Z,20.96
2023-05-25T14:47:08.626Z,21.06
2023-05-25T14:49:36.103Z,21.23
2023-05-25T14:52:03.589Z,21.35
2023-05-25T14:54:30.988Z,21.02
2023-05-25T14:56:58.375Z,21.01
2023-05-25T14:59:25.623Z,21.08
2023-05-25T15:01:53.074Z,21.02
2023-05-25T15:04:20.836Z,20.99
2023-05-25T15:06:48.327Z,20.93
2023-05-25T15:09:16.923Z,20.73
2023-05-25T15:11:44.381Z,20.89
2023-05-25T15:14:11.733Z,21.27
2023-05-25T15:16:39.172Z,21.14
2023-05-25T15:19:07.284Z,21.13
2023-05-25T15:21:37.012Z,21.23
2023-05-25T15:24:04.339Z,21.00
2023-05-25T15:26:31.652Z,21.11
2023-05-25T15:28:59.022Z,21.27
2023-05-25T15:31:26.919Z,21.41
2023-05-25T15:33:58.598Z,21.24
2023-05-25T15:36:26.798Z,21.27
2023-05-25T15:38:54.100Z,21.13
2023-05-25T15:41:21.874Z,21.14
2023-05-25T15:43:57.959Z,21.19
2023-05-25T15:46:25.853Z,21.36
2023-05-25T15:48:53.936Z,21.15
2023-05-25T15:51:21.899Z,21.11
2023-05-25T15:53:49.314Z,20.98
2023-05-25T15:56:16.737Z,21.22
2023-05-25T15:58:47.152Z,21.18
2023-05-25T16:01:14.542Z,21.08
2023-05-25T16:03:43.245Z,21.05
2023-05-25T16:06:11.235Z,21.13
2023-05-25T16:08:38.618Z,21.11
2023-05-25T16:11:06.295Z,20.90
2023-05-25T16:13:33.622Z,20.88
2023-05-25T16:16:00.979Z,20.82
2023-05-25T16:18:28.336Z,20.95
2023-05-25T16:20:58.550Z,20.95
2023-05-25T16:23:25.911Z,21.16
2023-05-25T16:25:53.285Z,21.36
2023-05-25T16:28:20.900Z,21.25
2023-05-25T16:30:48.285Z,21.06
2023-05-25T16:33:15.767Z,21.16
2023-05-25T16:35:43.551Z,21.25
2023-05-25T16:38:11.010Z,21.33
2023-05-25T16:40:38.340Z,21.35
2023-05-25T16:43:05.705Z,21.23
2023-05-25T16:45:33.019Z,21.17
2023-05-25T16:48:00.550Z,21.19
2023-05-25T16:50:27.872Z,21.19
2023-05-25T16:52:55.950Z,21.50
2023-05-25T16:55:23.801Z,21.48
2023-05-25T16:57:51.101Z,21.28
2023-05-25T17:00:18.654Z,21.28
2023-05-25T17:02:45.972Z,21.21
2023-05-25T17:05:13.469Z,21.41
2023-05-25T17:07:41.080Z,21.44
2023-05-25T17:10:09.004Z,20.96
2023-05-25T17:12:36.461Z,20.97
2023-05-25T17:15:03.992Z,20.85
2023-05-25T17:17:31.334Z,20.94
2023-05-25T17:19:58.934Z,20.93
2023-05-25T17:22:26.240Z,20.89
2023-05-25T17:24:53.638Z,21.05
2023-05-25T17:27:20.978Z,20.98
2023-05-25T17:29:48.283Z,20.86
2023-05-25T17:32:15.695Z,20.95
2023-05-25T17:34:42.998Z,21.03
2023-05-25T17:37:10.345Z,21.08
2023-05-25T17:39:37.862Z,20.89
2023-05-25T17:42:06.714Z,21.12
2023-05-25T17:44:34.004Z,21.32
2023-05-25T17:47:01.297Z,21.31
2023-05-25T17:49:28.530Z,21.14
2023-05-25T17:51:55.881Z,20.87
2023-05-25T17:54:25.819Z,21.00
2023-05-25T17:56:54.071Z,21.27
2023-05-25T17:59:21.400Z,20.98
2023-05-25T18:01:48.780Z,21.16
2023-05-25T18:04:16.115Z,20.96
2023-05-25T18:06:43.569Z,21.00
2023-05-25T18:09:10.864Z,20.78
2023-05-25T18:11:38.283Z,20.82
2023-05-25T18:14:05.752Z,20.62
2023-05-25T18:16:33.503Z,20.76
2023-05-25T18:19:00.899Z,20.76
2023-05-25T18:21:28.297Z,20.72
2023-05-25T18:23:55.790Z,20.55
2023-05-25T18:26:23.609Z,20.51
2023-05-25T18:28:50.967Z,20.59
2023-05-25T18:31:18.278Z,20.67
2023-05-25T18:33:45.745Z,20.54
2023-05-25T18:36:13.133Z,20.41
2023-05-25T18:38:40.711Z,20.62
2023-05-25T18:41:08.098Z,20.48
2023-05-25T18:43:35.652Z,20.38
2023-05-25T18:46:03.165Z,20.29
2023-05-25T18:48:30.696Z,20.35
2023-05-25T18:50:58.655Z,20.32
2023-05-25T18:53:26.291Z,20.14
2023-05-25T18:55:53.726Z,20.07
2023-05-25T18:58:21.267Z,20.11
2023-05-25T19:00:48.625Z,20.14
2023-05-25T19:03:16.205Z,19.95
2023-05-25T19:05:43.928Z,19.78
2023-05-25T19:08:11.329Z,19.75
2023-05-25T19:10:38.656Z,19.80
2023-05-25T19:13:06.061Z,19.73
2023-05-25T19:15:33.394Z,19.42
2023-05-25T19:18:03.518Z,19.58
2023-05-25T19:20:32.784Z,19.41
2023-05-25T19:23:00.160Z,19.52
2023-05-25T19:25:27.603Z,19.32
2023-05-25T19:27:54.958Z,19.33
2023-05-25T19:30:22.231Z,19.41
2023-05-25T19:32:49.539Z,19.23
2023-05-25T19:35:17.123Z,19.21
2023-05-25T19:37:44.495Z,19.07
2023-05-25T19:40:13.253Z,19.08
2023-05-25T19:42:46.001Z,19.13
2023-05-25T19:45:13.407Z,19.11
2023-05-25T19:47:40.810Z,19.07
2023-05-25T19:50:08.728Z,19.10
2023-05-25T19:52:37.913Z,19.12
2023-05-25T19:55:06.106Z,19.14
2023-05-25T19:57:33.407Z,19.15
2023-05-25T20:00:00.920Z,18.82
2023-05-25T20:02:28.437Z,18.87
2023-05-25T20:04:55.831Z,19.19
2023-05-25T20:07:23.897Z,19.17
2023-05-25T20:09:51.175Z,19.06
2023-05-25T20:12:18.576Z,18.90
2023-05-25T20:14:45.865Z,19.01
2023-05-25T20:17:13.329Z,18.98
2023-05-25T20:19:40.681Z,18.71
2023-05-25T20:22:08.368Z,18.64
2023-05-25T20:24:35.869Z,18.52
2023-05-25T20:27:06.828Z,18.69
2023-05-25T20:29:34.299Z,18.46
2023-05-25T20:32:02.216Z,18.21
2023-05-25T20:34:29.634Z,18.18
2023-05-25T20:36:57.044Z,18.22
2023-05-25T20:39:24.536Z,18.35
2023-05-25T20:41:51.988Z,18.59
2023-05-25T20:44:19.591Z,18.54
2023-05-25T20:46:46.868Z,18.35
2023-05-25T20:49:14.267Z,18.17
2023-05-25T20:51:44.515Z,18.16
2023-05-25T20:54:11.633Z,17.96
2023-05-25T20:56:38.980Z,17.93
2023-05-25T20:59:06.282Z,17.85
2023-05-25T21:01:34.548Z,17.79
2023-05-25T21:04:02.270Z,17.76
2023-05-25T21:06:32.866Z,17.73
2023-05-25T21:09:02.590Z,17.75
2023-05-25T21:11:29.987Z,17.69
2023-05-25T21:13:57.320Z,17.75
2023-05-25T21:16:24.787Z,17.80
2023-05-25T21:18:52.171Z,17.99
2023-05-25T21:21:19.538Z,17.73
2023-05-25T21:23:46.909Z,17.69
2023-05-25T21:26:14.372Z,17.55
2023-05-25T21:28:41.754Z,17.50
2023-05-25T21:31:09.229Z,17.24
2023-05-25T21:33:37.833Z,17.37
2023-05-25T21:36:05.326Z,17.51
2023-05-25T21:38:32.678Z,17.24
2023-05-25T21:41:00.067Z,17.35
2023-05-25T21:43:27.563Z,17.26
2023-05-25T21:45:54.848Z,17.15
2023-05-25T21:48:22.376Z,17.09
2023-05-25T21:50:53.552Z,17.13
2023-05-25T21:53:21.408Z,16.97
2023-05-25T21:55:49.098Z,17.13
2023-05-25T21:58:17.782Z,17.13
2023-05-25T22:00:45.504Z,17.01
2023-05-25T22:03:13.159Z,17.06
2023-05-25T22:05:40.626Z,17.15
2023-05-25T22:08:08.771Z,16.71
2023-05-25T22:10:37.132Z,16.89
2023-05-25T22:13:05.189Z,17.05
2023-05-25T22:15:32.522Z,16.91
2023-05-25T22:18:00.411Z,16.79
2023-05-25T22:20:27.947Z,16.68
2023-05-25T22:22:56.398Z,16.45
2023-05-25T22:25:25.242Z,16.55
2023-05-25T22:27:52.469Z,16.47
2023-05-25T22:30:19.868Z,16.39
2023-05-25T22:32:47.280Z,16.29
2023-05-25T22:35:14.651Z,16.48
2023-05-25T22:37:42.056Z,16.45
2023-05-25T22:40:09.903Z,16.40
2023-05-25T22:42:37.200Z,16.46
2023-05-25T22:45:04.876Z,16.49
2023-05-25T22:47:32.263Z,16.68
2023-05-25T22:49:59.605Z,16.45
2023-05-25T22:52:27.231Z,16.29
2023-05-25T22:54:54.591Z,16.55
2023-05-25T22:57:21.823Z,16.57
2023-05-25T22:59:49.162Z,16.42
2023-05-25T23:02:16.527Z,16.35
2023-05-25T23:04:43.948Z,16.39
2023-05-25T23:07:11.272Z,16.25
2023-05-25T23:09:38.689Z,16.28
2023-05-25T23:12:06.446Z,16.28
2023-05-25T23:14:35.804Z,16.33
2023-05-25T23:17:03.274Z,16.33
2023-05-25T23:19:30.553Z,16.35
2023-05-25T23:21:58.650Z,16.43
2023-05-25T23:24:25.878Z,16.41
2023-05-25T23:26:53.196Z,16.30
2023-05-25T23:29:20.488Z,16.29
2023-05-25T23:31:47.866Z,16.26
2023-05-25T23:34:15.711Z,16.14
2023-05-25T23:36:45.014Z,16.14
2023-05-25T23:39:13.048Z,16.25
2023-05-25T23:41:40.765Z,16.00
2023-05-25T23:44:08.112Z,15.78
2023-05-25T23:46:35.511Z,15.97
2023-05-25T23:49:02.928Z,15.85
2023-05-25T23:51:31.834Z,15.95
2023-05-25T23:53:59.142Z,16.06
2023-05-25T23:56:27.866Z,16.17
2023-05-25T23:58:56.905Z,15.84
